sensor_id;sensor_type;location;lat;lon;timestamp;temperature;humidity
44855;DHT22;30591;48.228;16.398;2023-04-01T00:00:27;10.20;99.90
44855;DHT22;30591;48.228;16.398;2023-04-01T00:02:54;10.20;99.90
44855;DHT22;30591;48.228;16.398;2023-04-01T00:05:22;10.10;99.90
44855;DHT22;30591;48.228;16.398;2023-04-01T00:07:51;10.20;99.90
44855;DHT22;30591;48.228;16.398;2023-04-01T00:10:18;10.10;99.90
44855;DHT22;30591;48.228;16.398;2023-04-01T00:12:45;10.20;99.90
44855;DHT22;30591;48.228;16.398;2023-04-01T00:15:13;10.20;99.90
44855;DHT22;30591;48.228;16.398;2023-04-01T00:17:40;10.10;99.90
44855;DHT22;30591;48.228;16.398;2023-04-01T00:20:08;10.10;99.90
44855;DHT22;30591;48.228;16.398;2023-04-01T00:22:36;10.10;99.90
44855;DHT22;30591;48.228;16.398;2023-04-01T00:25:04;10.10;99.90
44855;DHT22;30591;48.228;16.398;2023-04-01T00:27:31;10.10;99.90
44855;DHT22;30591;48.228;16.398;2023-04-01T00:29:58;10.10;99.90
44855;DHT22;30591;48.228;16.398;2023-04-01T00:32:26;10.10;99.90
44855;DHT22;30591;48.228;16.398;2023-04-01T00:34:54;10.10;99.90
44855;DHT22;30591;48.228;16.398;2023-04-01T00:37:21;10.10;99.90
44855;DHT22;30591;48.228;16.398;2023-04-01T00:39:49;10.00;99.90
44855;DHT22;30591;48.228;16.398;2023-04-01T00:42:17;10.00;99.90
44855;DHT22;30591;48.228;16.398;2023-04-01T00:44:49;10.00;99.90
44855;DHT22;30591;48.228;16.398;2023-04-01T00:47:17;10.00;99.90
44855;DHT22;30591;48.228;16.398;2023-04-01T00:49:48;10.00;99.90
44855;DHT22;30591;48.228;16.398;2023-04-01T00:52:21;9.90;99.90
44855;DHT22;30591;48.228;16.398;2023-04-01T00:54:54;9.90;99.90
44855;DHT22;30591;48.228;16.398;2023-04-01T00:57:35;9.90;99.90
44855;DHT22;30591;48.228;16.398;2023-04-01T01:00:06;9.90;99.90
44855;DHT22;30591;48.228;16.398;2023-04-01T01:02:36;9.90;99.90
44855;DHT22;30591;48.228;16.398;2023-04-01T01:05:05;9.90;99.90
44855;DHT22;30591;48.228;16.398;2023-04-01T01:10:39;9.90;99.90
44855;DHT22;30591;48.228;16.398;2023-04-01T01:13:29;9.80;99.90
44855;DHT22;30591;48.228;16.398;2023-04-01T01:16:09;9.90;99.90
44855;DHT22;30591;48.228;16.398;2023-04-01T01:18:52;9.90;99.90
44855;DHT22;30591;48.228;16.398;2023-04-01T01:21:46;9.80;99.90
44855;DHT22;30591;48.228;16.398;2023-04-01T01:35:40;9.70;99.90
44855;DHT22;30591;48.228;16.398;2023-04-01T01:38:17;9.70;99.90
44855;DHT22;30591;48.228;16.398;2023-04-01T01:40:56;9.70;99.90
44855;DHT22;30591;48.228;16.398;2023-04-01T01:43:31;9.70;99.90
44855;DHT22;30591;48.228;16.398;2023-04-01T01:46:10;9.70;99.90
44855;DHT22;30591;48.228;16.398;2023-04-01T01:48:42;9.70;99.90
44855;DHT22;30591;48.228;16.398;2023-04-01T01:51:10;9.60;99.90
44855;DHT22;30591;48.228;16.398;2023-04-01T01:53:38;9.60;99.90
44855;DHT22;30591;48.228;16.398;2023-04-01T01:56:06;9.60;99.90
44855;DHT22;30591;48.228;16.398;2023-04-01T01:58:49;9.60;99.90
44855;DHT22;30591;48.228;16.398;2023-04-01T02:01:23;9.50;99.90
44855;DHT22;30591;48.228;16.398;2023-04-01T02:03:55;9.50;99.90
44855;DHT22;30591;48.228;16.398;2023-04-01T02:06:26;9.40;99.90
44855;DHT22;30591;48.228;16.398;2023-04-01T02:09:00;9.40;99.90
44855;DHT22;30591;48.228;16.398;2023-04-01T02:11:43;9.40;99.90
44855;DHT22;30591;48.228;16.398;2023-04-01T02:14:21;9.40;99.90
44855;DHT22;30591;48.228;16.398;2023-04-01T02:16:57;9.40;99.90
44855;DHT22;30591;48.228;16.398;2023-04-01T02:19:29;9.40;99.90
44855;DHT22;30591;48.228;16.398;2023-04-01T02:22:02;9.40;99.90
44855;DHT22;30591;48.228;16.398;2023-04-01T02:24:32;9.40;99.90
44855;DHT22;30591;48.228;16.398;2023-04-01T02:27:03;9.50;99.90
44855;DHT22;30591;48.228;16.398;2023-04-01T02:29:32;9.50;99.90
44855;DHT22;30591;48.228;16.398;2023-04-01T02:32:00;9.50;99.90
44855;DHT22;30591;48.228;16.398;2023-04-01T02:34:28;9.50;99.90
44855;DHT22;30591;48.228;16.398;2023-04-01T02:36:57;9.40;99.90
44855;DHT22;30591;48.228;16.398;2023-04-01T02:39:25;9.40;99.90
44855;DHT22;30591;48.228;16.398;2023-04-01T02:41:55;9.40;99.90
44855;DHT22;30591;48.228;16.398;2023-04-01T02:44:22;9.40;99.90
44855;DHT22;30591;48.228;16.398;2023-04-01T02:46:49;9.30;99.90
44855;DHT22;30591;48.228;16.398;2023-04-01T02:49:17;9.20;99.90
44855;DHT22;30591;48.228;16.398;2023-04-01T02:51:45;9.20;99.90
44855;DHT22;30591;48.228;16.398;2023-04-01T02:54:12;9.20;99.90
44855;DHT22;30591;48.228;16.398;2023-04-01T02:56:39;9.20;99.90
44855;DHT22;30591;48.228;16.398;2023-04-01T02:59:07;9.20;99.90
44855;DHT22;30591;48.228;16.398;2023-04-01T03:01:34;9.10;99.90
44855;DHT22;30591;48.228;16.398;2023-04-01T03:04:01;9.10;99.90
44855;DHT22;30591;48.228;16.398;2023-04-01T03:06:29;9.10;99.90
44855;DHT22;30591;48.228;16.398;2023-04-01T03:08:57;9.10;99.90
44855;DHT22;30591;48.228;16.398;2023-04-01T03:11:25;9.20;99.90
44855;DHT22;30591;48.228;16.398;2023-04-01T03:13:53;9.30;99.90
44855;DHT22;30591;48.228;16.398;2023-04-01T03:16:20;9.40;99.90
44855;DHT22;30591;48.228;16.398;2023-04-01T03:18:49;9.50;99.90
44855;DHT22;30591;48.228;16.398;2023-04-01T03:21:23;9.40;99.90
44855;DHT22;30591;48.228;16.398;2023-04-01T03:23:50;9.40;99.90
44855;DHT22;30591;48.228;16.398;2023-04-01T03:26:18;9.40;99.90
44855;DHT22;30591;48.228;16.398;2023-04-01T03:28:45;9.30;99.90
44855;DHT22;30591;48.228;16.398;2023-04-01T03:31:12;9.30;99.90
44855;DHT22;30591;48.228;16.398;2023-04-01T03:33:48;9.30;99.90
44855;DHT22;30591;48.228;16.398;2023-04-01T03:36:16;9.20;99.90
44855;DHT22;30591;48.228;16.398;2023-04-01T03:38:44;9.30;99.90
44855;DHT22;30591;48.228;16.398;2023-04-01T03:41:17;9.30;99.90
44855;DHT22;30591;48.228;16.398;2023-04-01T03:43:45;9.20;99.90
44855;DHT22;30591;48.228;16.398;2023-04-01T03:46:17;9.20;99.90
44855;DHT22;30591;48.228;16.398;2023-04-01T03:48:46;9.10;99.90
44855;DHT22;30591;48.228;16.398;2023-04-01T03:51:13;9.10;99.90
44855;DHT22;30591;48.228;16.398;2023-04-01T03:53:41;9.10;99.90
44855;DHT22;30591;48.228;16.398;2023-04-01T03:56:08;9.00;99.90
44855;DHT22;30591;48.228;16.398;2023-04-01T03:58:36;9.00;99.90
44855;DHT22;30591;48.228;16.398;2023-04-01T04:01:26;9.10;99.90
44855;DHT22;30591;48.228;16.398;2023-04-01T04:03:56;9.20;99.90
44855;DHT22;30591;48.228;16.398;2023-04-01T04:06:24;9.20;99.90
44855;DHT22;30591;48.228;16.398;2023-04-01T04:08:52;9.20;99.90
44855;DHT22;30591;48.228;16.398;2023-04-01T04:11:21;9.20;99.90
44855;DHT22;30591;48.228;16.398;2023-04-01T04:13:51;9.20;99.90
44855;DHT22;30591;48.228;16.398;2023-04-01T04:16:21;9.20;99.90
44855;DHT22;30591;48.228;16.398;2023-04-01T04:18:55;9.20;99.90
44855;DHT22;30591;48.228;16.398;2023-04-01T04:21:22;9.10;99.90
44855;DHT22;30591;48.228;16.398;2023-04-01T04:23:50;9.10;99.90
44855;DHT22;30591;48.228;16.398;2023-04-01T04:26:20;9.00;99.90
44855;DHT22;30591;48.228;16.398;2023-04-01T04:28:55;9.00;99.90
44855;DHT22;30591;48.228;16.398;2023-04-01T04:31:24;9.00;99.90
44855;DHT22;30591;48.228;16.398;2023-04-01T04:33:54;8.90;99.90
44855;DHT22;30591;48.228;16.398;2023-04-01T04:36:23;8.90;99.90
44855;DHT22;30591;48.228;16.398;2023-04-01T04:38:51;8.80;99.90
44855;DHT22;30591;48.228;16.398;2023-04-01T04:41:19;8.80;99.90
44855;DHT22;30591;48.228;16.398;2023-04-01T04:43:54;8.70;99.90
44855;DHT22;30591;48.228;16.398;2023-04-01T04:46:23;8.70;99.90
44855;DHT22;30591;48.228;16.398;2023-04-01T04:48:58;8.70;99.90
44855;DHT22;30591;48.228;16.398;2023-04-01T04:51:27;8.60;99.90
44855;DHT22;30591;48.228;16.398;2023-04-01T04:53:54;8.60;99.90
44855;DHT22;30591;48.228;16.398;2023-04-01T04:56:32;8.60;99.90
44855;DHT22;30591;48.228;16.398;2023-04-01T04:59:05;8.60;99.90
44855;DHT22;30591;48.228;16.398;2023-04-01T05:01:49;8.60;99.90
44855;DHT22;30591;48.228;16.398;2023-04-01T05:04:17;8.60;99.90
44855;DHT22;30591;48.228;16.398;2023-04-01T05:06:44;8.60;99.90
44855;DHT22;30591;48.228;16.398;2023-04-01T05:09:12;8.70;99.90
44855;DHT22;30591;48.228;16.398;2023-04-01T05:11:40;8.70;99.90
44855;DHT22;30591;48.228;16.398;2023-04-01T05:14:14;8.80;99.90
44855;DHT22;30591;48.228;16.398;2023-04-01T05:16:48;8.80;99.90
44855;DHT22;30591;48.228;16.398;2023-04-01T05:19:16;8.80;99.90
44855;DHT22;30591;48.228;16.398;2023-04-01T05:21:43;8.90;99.90
44855;DHT22;30591;48.228;16.398;2023-04-01T05:24:11;9.00;99.90
44855;DHT22;30591;48.228;16.398;2023-04-01T05:26:39;9.00;99.90
44855;DHT22;30591;48.228;16.398;2023-04-01T05:29:06;9.10;99.90
44855;DHT22;30591;48.228;16.398;2023-04-01T05:31:34;9.20;99.90
44855;DHT22;30591;48.228;16.398;2023-04-01T05:34:06;9.20;99.90
44855;DHT22;30591;48.228;16.398;2023-04-01T05:36:33;9.30;99.90
44855;DHT22;30591;48.228;16.398;2023-04-01T05:39:02;9.30;99.90
44855;DHT22;30591;48.228;16.398;2023-04-01T05:41:30;9.40;99.90
44855;DHT22;30591;48.228;16.398;2023-04-01T05:43:58;9.50;99.90
44855;DHT22;30591;48.228;16.398;2023-04-01T05:46:41;9.60;99.90
44855;DHT22;30591;48.228;16.398;2023-04-01T05:49:28;9.60;99.90
44855;DHT22;30591;48.228;16.398;2023-04-01T05:51:56;9.80;99.90
44855;DHT22;30591;48.228;16.398;2023-04-01T05:54:24;9.80;99.90
44855;DHT22;30591;48.228;16.398;2023-04-01T05:56:52;9.90;99.90
44855;DHT22;30591;48.228;16.398;2023-04-01T05:59:20;9.90;99.90
44855;DHT22;30591;48.228;16.398;2023-04-01T06:01:47;10.00;99.90
44855;DHT22;30591;48.228;16.398;2023-04-01T06:04:17;10.00;99.90
44855;DHT22;30591;48.228;16.398;2023-04-01T06:06:45;10.00;99.90
44855;DHT22;30591;48.228;16.398;2023-04-01T06:09:19;10.10;99.90
44855;DHT22;30591;48.228;16.398;2023-04-01T06:17:52;10.30;99.90
44855;DHT22;30591;48.228;16.398;2023-04-01T06:23:14;10.50;99.90
44855;DHT22;30591;48.228;16.398;2023-04-01T06:26:02;10.50;99.90
44855;DHT22;30591;48.228;16.398;2023-04-01T06:32:02;10.70;99.90
44855;DHT22;30591;48.228;16.398;2023-04-01T06:37:35;10.90;99.90
44855;DHT22;30591;48.228;16.398;2023-04-01T06:40:35;11.00;99.90
44855;DHT22;30591;48.228;16.398;2023-04-01T06:53:34;11.60;99.90
44855;DHT22;30591;48.228;16.398;2023-04-01T06:56:30;11.70;99.90
44855;DHT22;30591;48.228;16.398;2023-04-01T06:59:12;11.70;99.90
44855;DHT22;30591;48.228;16.398;2023-04-01T07:02:12;11.70;99.90
44855;DHT22;30591;48.228;16.398;2023-04-01T07:04:46;11.80;99.90
44855;DHT22;30591;48.228;16.398;2023-04-01T07:09:56;12.10;99.90
44855;DHT22;30591;48.228;16.398;2023-04-01T07:15:36;12.20;99.90
44855;DHT22;30591;48.228;16.398;2023-04-01T07:18:34;12.20;99.90
44855;DHT22;30591;48.228;16.398;2023-04-01T07:21:05;12.20;99.90
44855;DHT22;30591;48.228;16.398;2023-04-01T07:23:42;12.40;99.90
44855;DHT22;30591;48.228;16.398;2023-04-01T07:26:30;12.60;99.90
44855;DHT22;30591;48.228;16.398;2023-04-01T07:29:12;12.80;99.90
44855;DHT22;30591;48.228;16.398;2023-04-01T07:34:30;13.10;99.90
44855;DHT22;30591;48.228;16.398;2023-04-01T07:56:28;12.80;99.90
44855;DHT22;30591;48.228;16.398;2023-04-01T08:20:50;13.20;99.90
44855;DHT22;30591;48.228;16.398;2023-04-01T08:23:28;13.50;99.90
44855;DHT22;30591;48.228;16.398;2023-04-01T08:29:14;14.10;99.90
44855;DHT22;30591;48.228;16.398;2023-04-01T08:32:03;14.50;99.90
44855;DHT22;30591;48.228;16.398;2023-04-01T08:34:38;14.70;99.90
44855;DHT22;30591;48.228;16.398;2023-04-01T08:37:23;15.10;99.90
44855;DHT22;30591;48.228;16.398;2023-04-01T08:39:58;14.60;99.90
44855;DHT22;30591;48.228;16.398;2023-04-01T08:42:54;14.80;99.90
44855;DHT22;30591;48.228;16.398;2023-04-01T08:57:18;13.80;99.90
44855;DHT22;30591;48.228;16.398;2023-04-01T09:12:22;14.90;99.40
44855;DHT22;30591;48.228;16.398;2023-04-01T09:17:57;14.10;99.00
44855;DHT22;30591;48.228;16.398;2023-04-01T09:43:33;13.20;99.20
44855;DHT22;30591;48.228;16.398;2023-04-01T09:46:17;13.30;99.90
44855;DHT22;30591;48.228;16.398;2023-04-01T10:07:21;13.30;99.40
44855;DHT22;30591;48.228;16.398;2023-04-01T10:29:41;13.60;99.10
44855;DHT22;30591;48.228;16.398;2023-04-01T10:32:42;14.00;98.60
44855;DHT22;30591;48.228;16.398;2023-04-01T11:08:53;14.10;96.40
44855;DHT22;30591;48.228;16.398;2023-04-01T11:26:04;14.40;95.60
44855;DHT22;30591;48.228;16.398;2023-04-01T11:40:29;14.10;95.20
44855;DHT22;30591;48.228;16.398;2023-04-01T11:43:36;14.00;95.10
44855;DHT22;30591;48.228;16.398;2023-04-01T11:46:43;14.00;95.70
44855;DHT22;30591;48.228;16.398;2023-04-01T11:49:42;13.90;95.30
44855;DHT22;30591;48.228;16.398;2023-04-01T11:58:48;13.90;95.60
44855;DHT22;30591;48.228;16.398;2023-04-01T12:06:49;14.00;96.00
44855;DHT22;30591;48.228;16.398;2023-04-01T12:12:49;14.10;96.20
44855;DHT22;30591;48.228;16.398;2023-04-01T12:17:47;14.30;95.70
44855;DHT22;30591;48.228;16.398;2023-04-01T12:23:22;14.10;95.10
44855;DHT22;30591;48.228;16.398;2023-04-01T12:26:05;14.10;95.10
44855;DHT22;30591;48.228;16.398;2023-04-01T12:40:19;14.70;93.90
44855;DHT22;30591;48.228;16.398;2023-04-01T12:45:34;15.40;93.80
44855;DHT22;30591;48.228;16.398;2023-04-01T13:11:07;14.90;93.80
44855;DHT22;30591;48.228;16.398;2023-04-01T13:16:39;14.60;93.70
44855;DHT22;30591;48.228;16.398;2023-04-01T13:19:25;14.80;93.90
44855;DHT22;30591;48.228;16.398;2023-04-01T13:22:30;14.70;93.10
44855;DHT22;30591;48.228;16.398;2023-04-01T13:25:28;14.70;94.20
44855;DHT22;30591;48.228;16.398;2023-04-01T13:28:18;14.70;93.90
44855;DHT22;30591;48.228;16.398;2023-04-01T13:31:13;14.80;94.10
44855;DHT22;30591;48.228;16.398;2023-04-01T13:34:36;14.60;94.40
44855;DHT22;30591;48.228;16.398;2023-04-01T13:42:26;14.50;94.80
44855;DHT22;30591;48.228;16.398;2023-04-01T13:45:02;14.90;95.30
44855;DHT22;30591;48.228;16.398;2023-04-01T14:02:07;23.90;73.50
44855;DHT22;30591;48.228;16.398;2023-04-01T14:16:45;24.80;64.20
44855;DHT22;30591;48.228;16.398;2023-04-01T14:22:11;17.70;79.70
44855;DHT22;30591;48.228;16.398;2023-04-01T14:25:05;17.40;79.40
44855;DHT22;30591;48.228;16.398;2023-04-01T14:33:18;16.00;84.90
44855;DHT22;30591;48.228;16.398;2023-04-01T14:36:27;16.10;86.00
44855;DHT22;30591;48.228;16.398;2023-04-01T14:39:00;16.20;87.10
44855;DHT22;30591;48.228;16.398;2023-04-01T14:44:24;16.50;85.90
44855;DHT22;30591;48.228;16.398;2023-04-01T14:47:15;16.80;85.60
44855;DHT22;30591;48.228;16.398;2023-04-01T14:49:47;16.60;84.90
44855;DHT22;30591;48.228;16.398;2023-04-01T14:54:50;15.90;87.00
44855;DHT22;30591;48.228;16.398;2023-04-01T14:57:29;15.80;89.20
44855;DHT22;30591;48.228;16.398;2023-04-01T15:00:13;16.20;87.10
44855;DHT22;30591;48.228;16.398;2023-04-01T15:16:26;15.90;86.50
44855;DHT22;30591;48.228;16.398;2023-04-01T15:22:12;15.70;85.00
44855;DHT22;30591;48.228;16.398;2023-04-01T15:24:56;15.40;85.40
44855;DHT22;30591;48.228;16.398;2023-04-01T15:30:19;15.20;86.80
44855;DHT22;30591;48.228;16.398;2023-04-01T15:32:55;15.20;85.50
44855;DHT22;30591;48.228;16.398;2023-04-01T15:38:39;15.20;85.90
44855;DHT22;30591;48.228;16.398;2023-04-01T15:43:43;15.10;84.80
44855;DHT22;30591;48.228;16.398;2023-04-01T15:55:00;14.90;86.50
44855;DHT22;30591;48.228;16.398;2023-04-01T16:11:07;14.80;87.30
44855;DHT22;30591;48.228;16.398;2023-04-01T16:14:00;14.90;87.20
44855;DHT22;30591;48.228;16.398;2023-04-01T16:17:00;15.00;87.70
44855;DHT22;30591;48.228;16.398;2023-04-01T16:33:46;14.40;91.90
44855;DHT22;30591;48.228;16.398;2023-04-01T16:39:26;14.10;92.50
44855;DHT22;30591;48.228;16.398;2023-04-01T16:42:35;13.90;92.80
44855;DHT22;30591;48.228;16.398;2023-04-01T16:48:20;13.60;93.60
44855;DHT22;30591;48.228;16.398;2023-04-01T16:51:00;13.50;94.00
44855;DHT22;30591;48.228;16.398;2023-04-01T16:53:48;13.30;94.30
44855;DHT22;30591;48.228;16.398;2023-04-01T16:56:24;13.20;94.90
44855;DHT22;30591;48.228;16.398;2023-04-01T17:01:26;13.10;95.50
44855;DHT22;30591;48.228;16.398;2023-04-01T17:04:07;13.10;95.30
44855;DHT22;30591;48.228;16.398;2023-04-01T17:17:19;13.20;94.90
44855;DHT22;30591;48.228;16.398;2023-04-01T17:22:47;13.20;94.90
44855;DHT22;30591;48.228;16.398;2023-04-01T17:28:34;13.30;95.30
44855;DHT22;30591;48.228;16.398;2023-04-01T17:40:05;13.00;96.50
44855;DHT22;30591;48.228;16.398;2023-04-01T17:42:52;12.90;96.80
44855;DHT22;30591;48.228;16.398;2023-04-01T17:45:26;12.70;97.10
44855;DHT22;30591;48.228;16.398;2023-04-01T17:51:17;12.30;97.80
44855;DHT22;30591;48.228;16.398;2023-04-01T17:59:37;12.00;98.40
44855;DHT22;30591;48.228;16.398;2023-04-01T18:02:26;11.90;98.70
44855;DHT22;30591;48.228;16.398;2023-04-01T18:13:37;11.70;99.90
44855;DHT22;30591;48.228;16.398;2023-04-01T18:21:32;11.60;99.90
44855;DHT22;30591;48.228;16.398;2023-04-01T18:26:46;11.50;99.90
44855;DHT22;30591;48.228;16.398;2023-04-01T18:35:17;11.50;99.90
44855;DHT22;30591;48.228;16.398;2023-04-01T18:38:00;11.40;99.90
44855;DHT22;30591;48.228;16.398;2023-04-01T18:40:35;11.30;99.90
44855;DHT22;30591;48.228;16.398;2023-04-01T18:43:12;11.30;99.90
44855;DHT22;30591;48.228;16.398;2023-04-01T18:45:50;11.30;99.90
44855;DHT22;30591;48.228;16.398;2023-04-01T18:51:54;11.20;99.90
44855;DHT22;30591;48.228;16.398;2023-04-01T18:54:31;11.20;99.90
44855;DHT22;30591;48.228;16.398;2023-04-01T18:57:10;11.20;99.90
44855;DHT22;30591;48.228;16.398;2023-04-01T18:59:57;11.20;99.90
44855;DHT22;30591;48.228;16.398;2023-04-01T19:02:41;11.10;99.90
44855;DHT22;30591;48.228;16.398;2023-04-01T19:05:32;11.20;99.90
44855;DHT22;30591;48.228;16.398;2023-04-01T19:08:30;11.10;99.90
44855;DHT22;30591;48.228;16.398;2023-04-01T19:11:31;11.10;99.90
44855;DHT22;30591;48.228;16.398;2023-04-01T19:17:05;11.10;99.90
44855;DHT22;30591;48.228;16.398;2023-04-01T19:28:07;11.00;99.90
44855;DHT22;30591;48.228;16.398;2023-04-01T19:31:17;11.00;99.90
44855;DHT22;30591;48.228;16.398;2023-04-01T19:39:50;10.80;99.90
44855;DHT22;30591;48.228;16.398;2023-04-01T19:51:05;10.60;99.90
44855;DHT22;30591;48.228;16.398;2023-04-01T19:53:47;10.60;99.90
44855;DHT22;30591;48.228;16.398;2023-04-01T19:56:24;10.60;99.90
44855;DHT22;30591;48.228;16.398;2023-04-01T20:04:46;10.40;99.90
44855;DHT22;30591;48.228;16.398;2023-04-01T20:08:17;10.40;99.90
44855;DHT22;30591;48.228;16.398;2023-04-01T20:11:01;10.40;99.90
44855;DHT22;30591;48.228;16.398;2023-04-01T20:13:50;10.40;99.90
44855;DHT22;30591;48.228;16.398;2023-04-01T20:16:20;10.30;99.90
44855;DHT22;30591;48.228;16.398;2023-04-01T20:18:59;10.30;99.90
44855;DHT22;30591;48.228;16.398;2023-04-01T20:21:36;10.30;99.90
44855;DHT22;30591;48.228;16.398;2023-04-01T20:24:19;10.20;99.90
44855;DHT22;30591;48.228;16.398;2023-04-01T20:27:17;10.10;99.90
44855;DHT22;30591;48.228;16.398;2023-04-01T20:38:28;9.80;99.90
44855;DHT22;30591;48.228;16.398;2023-04-01T20:49:23;9.70;99.90
44855;DHT22;30591;48.228;16.398;2023-04-01T20:52:08;9.70;99.90
44855;DHT22;30591;48.228;16.398;2023-04-01T21:02:42;9.60;99.90
44855;DHT22;30591;48.228;16.398;2023-04-01T21:08:24;9.50;99.90
44855;DHT22;30591;48.228;16.398;2023-04-01T21:22:55;9.40;99.90
44855;DHT22;30591;48.228;16.398;2023-04-01T21:31:21;9.50;99.90
44855;DHT22;30591;48.228;16.398;2023-04-01T21:50:53;9.60;99.90
44855;DHT22;30591;48.228;16.398;2023-04-01T22:04:45;9.70;99.90
44855;DHT22;30591;48.228;16.398;2023-04-01T22:07:20;9.60;99.90
44855;DHT22;30591;48.228;16.398;2023-04-01T22:12:31;9.70;99.90
44855;DHT22;30591;48.228;16.398;2023-04-01T22:15:40;9.70;99.90
44855;DHT22;30591;48.228;16.398;2023-04-01T22:18:34;9.80;99.90
44855;DHT22;30591;48.228;16.398;2023-04-01T22:26:34;9.70;99.90
44855;DHT22;30591;48.228;16.398;2023-04-01T22:29:35;9.70;99.90
44855;DHT22;30591;48.228;16.398;2023-04-01T22:32:34;9.70;99.90
44855;DHT22;30591;48.228;16.398;2023-04-01T22:43:46;9.80;99.90
44855;DHT22;30591;48.228;16.398;2023-04-01T22:46:45;9.70;99.90
44855;DHT22;30591;48.228;16.398;2023-04-01T22:49:32;9.70;99.90
44855;DHT22;30591;48.228;16.398;2023-04-01T22:52:31;9.70;99.90
44855;DHT22;30591;48.228;16.398;2023-04-01T22:57:53;9.70;99.90
44855;DHT22;30591;48.228;16.398;2023-04-01T23:00:28;9.70;99.90
44855;DHT22;30591;48.228;16.398;2023-04-01T23:05:56;9.70;99.90
44855;DHT22;30591;48.228;16.398;2023-04-01T23:11:04;9.70;99.90
44855;DHT22;30591;48.228;16.398;2023-04-01T23:13:36;9.70;99.90
44855;DHT22;30591;48.228;16.398;2023-04-01T23:16:05;9.70;99.90
44855;DHT22;30591;48.228;16.398;2023-04-01T23:18:52;9.70;99.90
44855;DHT22;30591;48.228;16.398;2023-04-01T23:21:30;9.80;99.90
44855;DHT22;30591;48.228;16.398;2023-04-01T23:24:16;9.80;99.90
44855;DHT22;30591;48.228;16.398;2023-04-01T23:26:56;9.80;99.90
44855;DHT22;30591;48.228;16.398;2023-04-01T23:29:25;9.80;99.90
44855;DHT22;30591;48.228;16.398;2023-04-01T23:32:03;9.80;99.90
44855;DHT22;30591;48.228;16.398;2023-04-01T23:34:32;9.80;99.90
44855;DHT22;30591;48.228;16.398;2023-04-01T23:37:13;9.80;99.90
44855;DHT22;30591;48.228;16.398;2023-04-01T23:39:50;9.80;99.90
44855;DHT22;30591;48.228;16.398;2023-04-01T23:42:30;9.80;99.90
44855;DHT22;30591;48.228;16.398;2023-04-01T23:45:03;9.80;99.90
44855;DHT22;30591;48.228;16.398;2023-04-01T23:47:32;9.80;99.90
44855;DHT22;30591;48.228;16.398;2023-04-01T23:52:40;9.80;99.90
44855;DHT22;30591;48.228;16.398;2023-04-01T23:55:23;9.90;99.90
